Main page
METAR-TAF:

METAR-TAF

Airports :

Deputado Luís Eduardo Magalhães International Airport

Salvador, Bahia, Brazil

latitude: 12-54S, longitude: 038-20W, elevation: 6 m

Current weather observation

The report was made 33 minutes ago, at 21:00 UTC
Wind 11 kt from the East
Temperature 28°C
Humidity 74%
Pressure 1012 hPa
Visibility 10 km or more
Few clouds at a height of 2000 ft

METAR: SBSV 102100Z 09011KT 9999 FEW020 28/23 Q1012

Time: 18:33 (21:33 UTC)

Forecast

The report was made 5 hours and 33 minutes ago, at 16:00 UTC
Forecast valid from 10 at 18 UTC to 11 at 18 UTC
Wind 15 kt from the East/Northeast
Visibility 10 km or more
Scattered clouds at a height of 2000 ft
Becoming
from 11 at 06 UTC to 11 at 08 UTC
Wind 5 kt from the Northeast
Becoming
from 11 at 12 UTC to 11 at 14 UTC
Wind 15 kt from the East/Northeast

TAF: SBSV 101600Z 1018/1118 07015KT 9999 SCT020 TN26/1107Z TX30/1114Z BECMG 1106/1108 04005KT BECMG 1112/1114 07015KT RMK PEH

Weather observations and forecasts of more than 4000 airports (METAR and TAF reports).

The available stations are represented by yellow and red dots on the map.

Hover mouse over dot to see the name of the station.

Then click to see weather observations and forecasts.

To change the map : click on the green buttons with a black cross to zoom in, on the green button with a dash to zoom out, or on the green arrows for adjacent maps.


METAR-TAF: